createdAt,value
2017-09-22T00:03:38.892Z,14.26
2017-09-22T00:08:41.333Z,14.11
2017-09-22T00:13:43.913Z,14.11
2017-09-22T00:18:46.591Z,13.99
2017-09-22T00:23:49.102Z,14.07
2017-09-22T00:28:51.523Z,14.10
2017-09-22T00:33:54.106Z,14.10
2017-09-22T00:38:56.519Z,14.04
2017-09-22T00:43:59.167Z,14.04
2017-09-22T00:49:01.389Z,13.95
2017-09-22T00:54:04.117Z,13.77
2017-09-22T00:59:06.952Z,13.46
2017-09-22T01:04:10.178Z,13.09
2017-09-22T01:09:13.558Z,13.04
2017-09-22T01:14:17.412Z,13.33
2017-09-22T01:19:19.997Z,13.39
2017-09-22T01:24:22.585Z,13.27
2017-09-22T01:29:25.142Z,13.35
2017-09-22T01:34:27.699Z,13.50
2017-09-22T01:39:30.533Z,13.48
2017-09-22T01:44:33.166Z,13.62
2017-09-22T01:49:35.785Z,13.61
2017-09-22T01:54:38.341Z,13.63
2017-09-22T01:59:41.730Z,13.55
2017-09-22T02:04:45.128Z,13.54
2017-09-22T02:09:47.725Z,13.53
2017-09-22T02:14:49.660Z,13.52
2017-09-22T02:19:52.262Z,13.51
2017-09-22T02:24:54.846Z,13.53
2017-09-22T02:29:57.911Z,13.41
2017-09-22T02:35:01.286Z,13.18
2017-09-22T02:40:04.016Z,13.07
2017-09-22T02:45:06.218Z,13.32
2017-09-22T02:50:09.542Z,13.40
2017-09-22T02:55:12.202Z,13.31
2017-09-22T03:00:14.526Z,13.40
2017-09-22T03:05:16.897Z,13.54
2017-09-22T03:10:19.603Z,13.59
2017-09-22T03:15:22.225Z,13.58
2017-09-22T03:20:24.844Z,13.49
2017-09-22T03:25:28.091Z,13.37
2017-09-22T03:30:30.426Z,13.29
2017-09-22T03:35:33.010Z,13.27
2017-09-22T03:40:35.565Z,13.14
2017-09-22T03:45:38.390Z,13.04
2017-09-22T03:50:41.806Z,13.05
2017-09-22T03:55:44.671Z,13.00
2017-09-22T04:00:47.335Z,12.83
2017-09-22T04:05:49.591Z,12.63
2017-09-22T04:10:52.097Z,12.50
2017-09-22T04:15:55.079Z,12.73
2017-09-22T04:20:57.210Z,12.75
2017-09-22T04:26:00.634Z,12.73
2017-09-22T04:31:04.323Z,12.62
2017-09-22T04:36:06.959Z,12.69
2017-09-22T04:41:09.858Z,12.63
2017-09-22T04:46:12.157Z,12.46
2017-09-22T04:51:14.817Z,12.54
2017-09-22T04:56:17.294Z,12.59
2017-09-22T05:01:19.917Z,12.58
2017-09-22T05:06:22.260Z,12.50
2017-09-22T05:11:24.940Z,12.25
2017-09-22T05:16:29.600Z,12.24
2017-09-22T05:21:32.202Z,12.15
2017-09-22T05:26:34.812Z,12.36
2017-09-22T05:31:37.537Z,12.45
2017-09-22T05:36:40.240Z,12.44
2017-09-22T05:41:42.896Z,12.49
2017-09-22T05:46:45.216Z,12.68
2017-09-22T05:51:47.965Z,12.91
2017-09-22T05:56:50.546Z,13.13
2017-09-22T06:01:52.679Z,13.31
2017-09-22T06:06:55.175Z,13.49
2017-09-22T06:11:57.816Z,13.82
2017-09-22T06:17:07.229Z,14.09
2017-09-22T06:22:09.776Z,14.32
2017-09-22T06:27:13.178Z,14.38
2017-09-22T06:32:15.747Z,14.36
2017-09-22T06:37:18.018Z,14.28
2017-09-22T06:42:20.639Z,14.19
2017-09-22T06:47:23.882Z,14.42
2017-09-22T06:52:26.055Z,14.75
2017-09-22T06:57:28.411Z,14.95
2017-09-22T07:02:31.089Z,15.34
2017-09-22T07:07:34.394Z,15.79
2017-09-22T07:12:36.948Z,16.05
2017-09-22T07:17:39.392Z,16.21
2017-09-22T07:22:41.697Z,16.26
2017-09-22T07:27:45.941Z,16.42
2017-09-22T07:32:48.447Z,16.33
2017-09-22T07:37:50.992Z,16.08
2017-09-22T07:42:53.615Z,16.15
2017-09-22T07:47:56.096Z,16.39
2017-09-22T07:52:58.732Z,16.71
2017-09-22T07:58:01.373Z,17.02
2017-09-22T08:03:04.051Z,17.30
2017-09-22T08:08:06.599Z,17.34
2017-09-22T08:13:09.034Z,17.13
2017-09-22T08:18:11.099Z,17.24
2017-09-22T08:23:13.722Z,17.27
2017-09-22T08:28:16.394Z,17.59
2017-09-22T08:33:18.907Z,17.98
2017-09-22T08:38:21.441Z,18.09
2017-09-22T08:43:23.990Z,18.20
2017-09-22T08:48:26.022Z,18.36
2017-09-22T08:53:28.671Z,18.78
2017-09-22T08:58:31.205Z,19.26
2017-09-22T09:03:33.504Z,19.83
2017-09-22T09:08:36.494Z,20.31
2017-09-22T09:13:39.079Z,20.70
2017-09-22T09:18:41.788Z,20.97
2017-09-22T09:23:43.891Z,21.14
2017-09-22T09:28:46.473Z,21.39
2017-09-22T09:33:49.759Z,21.52
2017-09-22T09:38:52.400Z,21.69
2017-09-22T09:43:54.427Z,21.94
2017-09-22T09:48:56.812Z,21.97
2017-09-22T09:53:59.168Z,22.08
2017-09-22T09:59:01.771Z,22.05
2017-09-22T10:04:04.350Z,22.04
2017-09-22T10:09:06.522Z,22.12
2017-09-22T10:14:10.257Z,22.09
2017-09-22T10:19:12.997Z,22.33
2017-09-22T10:24:15.693Z,22.46
2017-09-22T10:29:18.606Z,22.64
2017-09-22T10:34:23.847Z,22.76
2017-09-22T10:39:33.018Z,22.41
2017-09-22T10:44:40.337Z,22.34
2017-09-22T10:49:48.452Z,22.34
2017-09-22T10:54:55.994Z,22.63
2017-09-22T10:59:58.135Z,22.46
2017-09-22T11:05:00.062Z,22.88
2017-09-22T11:10:02.054Z,23.45
2017-09-22T11:15:04.033Z,23.51
2017-09-22T11:20:06.718Z,23.65
2017-09-22T11:25:08.664Z,23.26
2017-09-22T11:30:10.614Z,23.32
2017-09-22T11:35:12.571Z,23.50
2017-09-22T11:40:14.580Z,23.31
2017-09-22T11:45:17.315Z,23.18
2017-09-22T11:50:19.313Z,23.63
2017-09-22T11:55:21.247Z,24.07
2017-09-22T12:00:23.198Z,24.19
2017-09-22T12:05:25.156Z,24.05
2017-09-22T12:10:27.659Z,24.04
2017-09-22T12:15:30.056Z,23.93
2017-09-22T12:20:33.131Z,23.70
2017-09-22T12:25:35.823Z,23.47
2017-09-22T12:30:39.889Z,23.47
2017-09-22T12:35:43.907Z,24.21
2017-09-22T12:40:45.871Z,23.98
2017-09-22T12:45:47.802Z,23.62
2017-09-22T12:50:49.759Z,23.52
2017-09-22T12:55:51.688Z,23.28
2017-09-22T13:00:53.663Z,23.88
2017-09-22T13:05:55.757Z,24.72
2017-09-22T13:10:57.772Z,25.13
2017-09-22T13:16:00.075Z,25.52
2017-09-22T13:21:03.128Z,25.29
2017-09-22T13:26:05.362Z,24.50
2017-09-22T13:31:07.389Z,24.36
2017-09-22T13:36:09.347Z,24.10
2017-09-22T13:41:11.341Z,24.01
2017-09-22T13:46:13.616Z,24.12
2017-09-22T13:51:16.345Z,24.66
2017-09-22T13:56:18.348Z,25.27
2017-09-22T14:01:20.444Z,25.08
2017-09-22T14:06:22.424Z,25.37
2017-09-22T14:11:24.413Z,25.70
2017-09-22T14:16:26.424Z,25.86
2017-09-22T14:21:28.380Z,25.73
2017-09-22T14:26:30.355Z,24.94
2017-09-22T14:31:32.319Z,24.39
2017-09-22T14:36:34.247Z,24.30
2017-09-22T14:41:36.194Z,23.99
2017-09-22T14:46:38.110Z,24.05
2017-09-22T14:51:40.041Z,23.76
2017-09-22T14:56:42.746Z,23.50
2017-09-22T15:01:45.612Z,23.52
2017-09-22T15:06:47.543Z,23.25
2017-09-22T15:11:49.501Z,23.08
2017-09-22T15:16:52.955Z,22.89
2017-09-22T15:21:54.909Z,22.72
2017-09-22T15:26:56.913Z,22.67
2017-09-22T15:31:58.932Z,22.48
2017-09-22T15:37:01.073Z,22.29
2017-09-22T15:42:03.096Z,22.48
2017-09-22T15:47:05.786Z,22.38
2017-09-22T15:52:07.690Z,22.32
2017-09-22T15:57:10.440Z,22.37
2017-09-22T16:02:13.123Z,22.11
2017-09-22T16:07:15.792Z,21.76
2017-09-22T16:12:17.768Z,21.70
2017-09-22T16:17:19.767Z,21.66
2017-09-22T16:22:21.713Z,21.32
2017-09-22T16:27:23.775Z,21.29
2017-09-22T16:32:25.767Z,21.35
2017-09-22T16:37:28.155Z,21.38
2017-09-22T16:42:31.439Z,21.14
2017-09-22T16:47:33.729Z,21.12
2017-09-22T16:52:36.633Z,20.88
2017-09-22T16:57:39.037Z,20.88
2017-09-22T17:02:40.983Z,20.71
2017-09-22T17:07:44.333Z,20.71
2017-09-22T17:12:48.642Z,20.72
2017-09-22T17:17:50.830Z,20.68
2017-09-22T17:22:53.518Z,20.80
2017-09-22T17:27:56.730Z,20.86
2017-09-22T17:32:58.725Z,20.83
2017-09-22T17:38:01.060Z,20.78
2017-09-22T17:43:09.694Z,20.58
2017-09-22T17:48:12.166Z,20.37
2017-09-22T17:53:14.460Z,20.34
2017-09-22T17:58:22.298Z,20.41
2017-09-22T18:03:26.977Z,20.39
2017-09-22T18:08:28.934Z,20.38
2017-09-22T18:13:32.399Z,20.28
2017-09-22T18:18:36.136Z,20.18
2017-09-22T18:23:38.095Z,20.09
2017-09-22T18:28:40.186Z,20.00
2017-09-22T18:33:42.198Z,19.89
2017-09-22T18:38:53.289Z,19.54
2017-09-22T18:43:55.526Z,19.37
2017-09-22T18:48:57.606Z,19.36
2017-09-22T18:54:00.201Z,19.23
2017-09-22T18:59:06.631Z,19.15
2017-09-22T19:04:11.844Z,19.03
2017-09-22T19:09:14.752Z,18.65
2017-09-22T19:14:21.132Z,18.35
2017-09-22T19:19:28.044Z,18.24
2017-09-22T19:24:30.792Z,18.19
2017-09-22T19:29:36.587Z,18.10
2017-09-22T19:34:42.501Z,18.05
2017-09-22T19:39:48.938Z,18.03
2017-09-22T19:44:55.774Z,18.00
2017-09-22T19:49:59.513Z,18.07
2017-09-22T19:55:02.663Z,18.12
2017-09-22T20:00:05.874Z,18.05
2017-09-22T20:05:09.014Z,18.03
2017-09-22T20:10:12.581Z,17.98
2017-09-22T20:15:18.855Z,17.89
2017-09-22T20:20:21.054Z,17.72
2017-09-22T20:25:23.819Z,17.50
2017-09-22T20:30:25.837Z,17.52
2017-09-22T20:35:27.890Z,17.80
2017-09-22T20:40:30.112Z,17.88
2017-09-22T20:45:32.912Z,17.96
2017-09-22T20:50:34.922Z,18.02
2017-09-22T20:55:37.785Z,18.08
2017-09-22T21:00:39.835Z,18.08
2017-09-22T21:05:41.927Z,18.03
2017-09-22T21:10:43.915Z,17.93
2017-09-22T21:15:45.913Z,17.74
2017-09-22T21:20:47.961Z,17.57
2017-09-22T21:25:50.010Z,17.43
2017-09-22T21:30:52.074Z,17.31
2017-09-22T21:35:54.060Z,17.15
2017-09-22T21:40:56.232Z,17.11
2017-09-22T21:46:00.819Z,17.25
2017-09-22T21:51:02.933Z,17.26
2017-09-22T21:56:05.005Z,17.13
2017-09-22T22:01:07.019Z,16.90
2017-09-22T22:06:15.022Z,16.77
2017-09-22T22:11:17.038Z,16.76
2017-09-22T22:16:19.148Z,16.67
2017-09-22T22:21:21.151Z,16.67
2017-09-22T22:26:24.109Z,16.52
2017-09-22T22:31:26.443Z,16.32
2017-09-22T22:36:28.626Z,16.26
2017-09-22T22:41:30.978Z,16.14
2017-09-22T22:46:32.961Z,16.10
2017-09-22T22:51:35.230Z,15.98
2017-09-22T22:56:37.622Z,16.01
2017-09-22T23:01:40.553Z,16.15
2017-09-22T23:06:43.156Z,16.20
2017-09-22T23:11:45.565Z,16.33
2017-09-22T23:16:52.802Z,16.37
2017-09-22T23:21:58.722Z,16.43
2017-09-22T23:27:05.472Z,16.44
2017-09-22T23:32:13.837Z,16.39
2017-09-22T23:37:20.064Z,16.32
2017-09-22T23:42:22.292Z,16.38
2017-09-22T23:47:29.772Z,16.34
2017-09-22T23:52:38.045Z,16.18
2017-09-22T23:57:46.068Z,16.25
